sensor_id;sensor_type;location;lat;lon;timestamp;P1;durP1;ratioP1;P2;durP2;ratioP2
76348;SDS011;65172;46.764;15.406;2023-03-21T00:00:29;6.95;;;4.50;;
76348;SDS011;65172;46.764;15.406;2023-03-21T00:02:55;6.80;;;4.70;;
76348;SDS011;65172;46.764;15.406;2023-03-21T00:05:21;5.65;;;4.60;;
76348;SDS011;65172;46.764;15.406;2023-03-21T00:07:47;5.45;;;4.03;;
76348;SDS011;65172;46.764;15.406;2023-03-21T00:10:12;10.30;;;4.20;;
76348;SDS011;65172;46.764;15.406;2023-03-21T00:12:38;7.32;;;4.00;;
76348;SDS011;65172;46.764;15.406;2023-03-21T00:15:04;6.72;;;4.00;;
76348;SDS011;65172;46.764;15.406;2023-03-21T00:17:34;5.55;;;3.83;;
76348;SDS011;65172;46.764;15.406;2023-03-21T00:20:01;6.13;;;3.67;;
76348;SDS011;65172;46.764;15.406;2023-03-21T00:22:31;6.15;;;4.00;;
76348;SDS011;65172;46.764;15.406;2023-03-21T00:24:59;6.80;;;3.15;;
76348;SDS011;65172;46.764;15.406;2023-03-21T00:27:24;6.13;;;3.55;;
76348;SDS011;65172;46.764;15.406;2023-03-21T00:29:50;7.93;;;4.10;;
76348;SDS011;65172;46.764;15.406;2023-03-21T00:32:16;5.68;;;3.85;;
76348;SDS011;65172;46.764;15.406;2023-03-21T00:34:43;4.75;;;3.25;;
76348;SDS011;65172;46.764;15.406;2023-03-21T00:37:09;6.38;;;3.17;;
76348;SDS011;65172;46.764;15.406;2023-03-21T00:39:36;4.45;;;3.00;;
76348;SDS011;65172;46.764;15.406;2023-03-21T00:42:01;6.07;;;3.08;;
76348;SDS011;65172;46.764;15.406;2023-03-21T00:44:27;6.65;;;2.83;;
76348;SDS011;65172;46.764;15.406;2023-03-21T00:46:52;3.95;;;2.80;;
76348;SDS011;65172;46.764;15.406;2023-03-21T00:49:18;3.38;;;2.55;;
76348;SDS011;65172;46.764;15.406;2023-03-21T00:51:46;3.85;;;2.72;;
76348;SDS011;65172;46.764;15.406;2023-03-21T00:54:15;5.57;;;2.58;;
76348;SDS011;65172;46.764;15.406;2023-03-21T00:56:41;4.90;;;2.45;;
76348;SDS011;65172;46.764;15.406;2023-03-21T00:59:07;4.80;;;2.47;;
76348;SDS011;65172;46.764;15.406;2023-03-21T01:01:32;6.30;;;3.13;;
76348;SDS011;65172;46.764;15.406;2023-03-21T01:03:58;7.70;;;3.20;;
76348;SDS011;65172;46.764;15.406;2023-03-21T01:06:35;7.57;;;3.90;;
76348;SDS011;65172;46.764;15.406;2023-03-21T01:09:05;5.03;;;3.28;;
76348;SDS011;65172;46.764;15.406;2023-03-21T01:11:32;5.55;;;2.80;;
76348;SDS011;65172;46.764;15.406;2023-03-21T01:13:58;6.45;;;2.90;;
76348;SDS011;65172;46.764;15.406;2023-03-21T01:16:23;4.88;;;2.50;;
76348;SDS011;65172;46.764;15.406;2023-03-21T01:18:49;4.82;;;3.17;;
76348;SDS011;65172;46.764;15.406;2023-03-21T01:21:15;11.80;;;3.72;;
76348;SDS011;65172;46.764;15.406;2023-03-21T01:23:41;5.60;;;3.75;;
76348;SDS011;65172;46.764;15.406;2023-03-21T01:26:07;5.95;;;4.38;;
76348;SDS011;65172;46.764;15.406;2023-03-21T01:28:33;5.72;;;4.38;;
76348;SDS011;65172;46.764;15.406;2023-03-21T01:31:00;3.92;;;3.15;;
76348;SDS011;65172;46.764;15.406;2023-03-21T01:33:27;7.07;;;3.90;;
76348;SDS011;65172;46.764;15.406;2023-03-21T01:35:52;6.55;;;4.13;;
76348;SDS011;65172;46.764;15.406;2023-03-21T01:38:18;5.53;;;3.85;;
76348;SDS011;65172;46.764;15.406;2023-03-21T01:40:45;6.32;;;4.10;;
76348;SDS011;65172;46.764;15.406;2023-03-21T01:43:30;8.88;;;4.75;;
76348;SDS011;65172;46.764;15.406;2023-03-21T01:46:05;9.98;;;4.88;;
76348;SDS011;65172;46.764;15.406;2023-03-21T01:48:45;6.72;;;4.20;;
76348;SDS011;65172;46.764;15.406;2023-03-21T01:51:13;6.15;;;3.97;;
76348;SDS011;65172;46.764;15.406;2023-03-21T01:53:38;5.40;;;3.20;;
76348;SDS011;65172;46.764;15.406;2023-03-21T01:56:07;7.40;;;4.88;;
76348;SDS011;65172;46.764;15.406;2023-03-21T01:58:52;5.88;;;4.13;;
76348;SDS011;65172;46.764;15.406;2023-03-21T02:01:21;5.32;;;3.33;;
76348;SDS011;65172;46.764;15.406;2023-03-21T02:03:47;6.05;;;3.60;;
76348;SDS011;65172;46.764;15.406;2023-03-21T02:06:31;5.32;;;3.75;;
76348;SDS011;65172;46.764;15.406;2023-03-21T02:09:02;4.75;;;3.45;;
76348;SDS011;65172;46.764;15.406;2023-03-21T02:11:29;4.90;;;3.00;;
76348;SDS011;65172;46.764;15.406;2023-03-21T02:13:56;5.18;;;3.30;;
76348;SDS011;65172;46.764;15.406;2023-03-21T02:24:40;4.78;;;3.05;;
76348;SDS011;65172;46.764;15.406;2023-03-21T02:27:14;4.63;;;2.60;;
76348;SDS011;65172;46.764;15.406;2023-03-21T02:37:59;4.38;;;2.92;;
76348;SDS011;65172;46.764;15.406;2023-03-21T02:43:45;8.82;;;2.20;;
76348;SDS011;65172;46.764;15.406;2023-03-21T02:46:14;4.75;;;2.88;;
76348;SDS011;65172;46.764;15.406;2023-03-21T02:48:50;4.05;;;2.50;;
76348;SDS011;65172;46.764;15.406;2023-03-21T02:51:21;4.25;;;3.00;;
76348;SDS011;65172;46.764;15.406;2023-03-21T02:53:49;8.93;;;4.97;;
76348;SDS011;65172;46.764;15.406;2023-03-21T02:56:17;3.13;;;2.55;;
76348;SDS011;65172;46.764;15.406;2023-03-21T02:58:44;3.60;;;2.78;;
76348;SDS011;65172;46.764;15.406;2023-03-21T03:01:10;3.50;;;2.67;;
76348;SDS011;65172;46.764;15.406;2023-03-21T03:03:36;3.88;;;2.97;;
76348;SDS011;65172;46.764;15.406;2023-03-21T03:06:06;6.18;;;3.33;;
76348;SDS011;65172;46.764;15.406;2023-03-21T03:16:53;7.75;;;5.85;;
76348;SDS011;65172;46.764;15.406;2023-03-21T03:19:29;8.65;;;5.18;;
76348;SDS011;65172;46.764;15.406;2023-03-21T03:22:01;8.18;;;5.05;;
76348;SDS011;65172;46.764;15.406;2023-03-21T03:24:36;8.07;;;5.13;;
76348;SDS011;65172;46.764;15.406;2023-03-21T03:27:06;7.65;;;5.32;;
76348;SDS011;65172;46.764;15.406;2023-03-21T03:29:36;8.02;;;4.78;;
76348;SDS011;65172;46.764;15.406;2023-03-21T03:32:09;7.18;;;5.40;;
76348;SDS011;65172;46.764;15.406;2023-03-21T03:34:41;8.55;;;4.50;;
76348;SDS011;65172;46.764;15.406;2023-03-21T03:37:13;7.88;;;5.40;;
76348;SDS011;65172;46.764;15.406;2023-03-21T03:39:46;8.80;;;5.32;;
76348;SDS011;65172;46.764;15.406;2023-03-21T03:42:27;7.53;;;5.70;;
76348;SDS011;65172;46.764;15.406;2023-03-21T03:44:54;7.00;;;5.25;;
76348;SDS011;65172;46.764;15.406;2023-03-21T03:47:27;10.45;;;6.00;;
76348;SDS011;65172;46.764;15.406;2023-03-21T03:49:59;9.27;;;5.50;;
76348;SDS011;65172;46.764;15.406;2023-03-21T03:52:30;8.75;;;5.30;;
76348;SDS011;65172;46.764;15.406;2023-03-21T03:54:58;7.15;;;4.90;;
76348;SDS011;65172;46.764;15.406;2023-03-21T03:57:25;9.13;;;5.70;;
76348;SDS011;65172;46.764;15.406;2023-03-21T03:59:51;7.57;;;5.10;;
76348;SDS011;65172;46.764;15.406;2023-03-21T04:02:16;11.73;;;6.05;;
76348;SDS011;65172;46.764;15.406;2023-03-21T04:04:44;14.68;;;5.85;;
76348;SDS011;65172;46.764;15.406;2023-03-21T04:07:11;10.02;;;5.75;;
76348;SDS011;65172;46.764;15.406;2023-03-21T04:09:37;7.15;;;5.55;;
76348;SDS011;65172;46.764;15.406;2023-03-21T04:12:02;9.60;;;6.18;;
76348;SDS011;65172;46.764;15.406;2023-03-21T04:14:28;9.48;;;5.47;;
76348;SDS011;65172;46.764;15.406;2023-03-21T04:16:53;8.50;;;5.50;;
76348;SDS011;65172;46.764;15.406;2023-03-21T04:19:19;9.32;;;5.90;;
76348;SDS011;65172;46.764;15.406;2023-03-21T04:21:46;8.48;;;5.65;;
76348;SDS011;65172;46.764;15.406;2023-03-21T04:24:12;10.52;;;6.13;;
76348;SDS011;65172;46.764;15.406;2023-03-21T04:26:38;9.43;;;6.10;;
76348;SDS011;65172;46.764;15.406;2023-03-21T04:29:04;11.48;;;6.45;;
76348;SDS011;65172;46.764;15.406;2023-03-21T04:31:30;8.95;;;6.22;;
76348;SDS011;65172;46.764;15.406;2023-03-21T04:33:58;10.52;;;6.60;;
76348;SDS011;65172;46.764;15.406;2023-03-21T04:36:25;12.13;;;6.63;;
76348;SDS011;65172;46.764;15.406;2023-03-21T04:38:55;14.00;;;8.15;;
76348;SDS011;65172;46.764;15.406;2023-03-21T04:41:27;12.27;;;8.45;;
76348;SDS011;65172;46.764;15.406;2023-03-21T04:43:53;15.10;;;7.93;;
76348;SDS011;65172;46.764;15.406;2023-03-21T04:46:20;12.25;;;8.68;;
76348;SDS011;65172;46.764;15.406;2023-03-21T04:48:45;10.45;;;6.63;;
76348;SDS011;65172;46.764;15.406;2023-03-21T04:51:11;12.52;;;8.27;;
76348;SDS011;65172;46.764;15.406;2023-03-21T04:53:37;11.80;;;8.85;;
76348;SDS011;65172;46.764;15.406;2023-03-21T04:56:04;12.75;;;8.80;;
76348;SDS011;65172;46.764;15.406;2023-03-21T04:58:30;16.35;;;8.80;;
76348;SDS011;65172;46.764;15.406;2023-03-21T05:00:56;14.77;;;8.50;;
76348;SDS011;65172;46.764;15.406;2023-03-21T05:03:22;14.65;;;8.77;;
76348;SDS011;65172;46.764;15.406;2023-03-21T05:05:48;11.57;;;7.68;;
76348;SDS011;65172;46.764;15.406;2023-03-21T05:08:14;15.40;;;8.82;;
76348;SDS011;65172;46.764;15.406;2023-03-21T05:10:40;10.93;;;7.18;;
76348;SDS011;65172;46.764;15.406;2023-03-21T05:13:06;14.60;;;8.13;;
76348;SDS011;65172;46.764;15.406;2023-03-21T05:15:32;11.80;;;7.20;;
76348;SDS011;65172;46.764;15.406;2023-03-21T05:17:57;15.35;;;8.23;;
76348;SDS011;65172;46.764;15.406;2023-03-21T05:20:23;10.25;;;7.85;;
76348;SDS011;65172;46.764;15.406;2023-03-21T05:22:50;14.63;;;8.38;;
76348;SDS011;65172;46.764;15.406;2023-03-21T05:25:16;15.40;;;8.23;;
76348;SDS011;65172;46.764;15.406;2023-03-21T05:27:45;13.57;;;7.80;;
76348;SDS011;65172;46.764;15.406;2023-03-21T05:30:18;9.77;;;7.83;;
76348;SDS011;65172;46.764;15.406;2023-03-21T05:32:43;11.18;;;7.32;;
76348;SDS011;65172;46.764;15.406;2023-03-21T05:35:09;12.73;;;8.02;;
76348;SDS011;65172;46.764;15.406;2023-03-21T05:37:35;11.45;;;7.32;;
76348;SDS011;65172;46.764;15.406;2023-03-21T05:40:02;15.05;;;7.72;;
76348;SDS011;65172;46.764;15.406;2023-03-21T05:42:30;12.02;;;8.25;;
76348;SDS011;65172;46.764;15.406;2023-03-21T05:44:55;10.55;;;7.47;;
76348;SDS011;65172;46.764;15.406;2023-03-21T05:47:21;14.13;;;6.75;;
76348;SDS011;65172;46.764;15.406;2023-03-21T05:49:47;11.18;;;6.35;;
76348;SDS011;65172;46.764;15.406;2023-03-21T05:52:12;12.18;;;7.70;;
76348;SDS011;65172;46.764;15.406;2023-03-21T05:54:38;10.30;;;7.07;;
76348;SDS011;65172;46.764;15.406;2023-03-21T05:57:03;14.38;;;7.55;;
76348;SDS011;65172;46.764;15.406;2023-03-21T05:59:29;12.70;;;7.70;;
76348;SDS011;65172;46.764;15.406;2023-03-21T06:01:55;10.18;;;7.53;;
76348;SDS011;65172;46.764;15.406;2023-03-21T06:04:20;10.75;;;6.95;;
76348;SDS011;65172;46.764;15.406;2023-03-21T06:06:46;14.68;;;7.35;;
76348;SDS011;65172;46.764;15.406;2023-03-21T06:09:11;12.32;;;6.63;;
76348;SDS011;65172;46.764;15.406;2023-03-21T06:11:38;13.10;;;6.80;;
76348;SDS011;65172;46.764;15.406;2023-03-21T06:14:07;13.43;;;7.57;;
76348;SDS011;65172;46.764;15.406;2023-03-21T06:16:33;11.50;;;8.38;;
76348;SDS011;65172;46.764;15.406;2023-03-21T06:18:59;12.13;;;8.57;;
76348;SDS011;65172;46.764;15.406;2023-03-21T06:21:24;10.95;;;7.93;;
76348;SDS011;65172;46.764;15.406;2023-03-21T06:23:50;14.73;;;7.90;;
76348;SDS011;65172;46.764;15.406;2023-03-21T06:26:16;17.13;;;9.48;;
76348;SDS011;65172;46.764;15.406;2023-03-21T06:28:50;12.90;;;7.80;;
76348;SDS011;65172;46.764;15.406;2023-03-21T06:31:16;14.32;;;8.57;;
76348;SDS011;65172;46.764;15.406;2023-03-21T06:33:41;12.95;;;8.48;;
76348;SDS011;65172;46.764;15.406;2023-03-21T06:36:07;14.05;;;7.55;;
76348;SDS011;65172;46.764;15.406;2023-03-21T06:38:33;11.95;;;7.22;;
76348;SDS011;65172;46.764;15.406;2023-03-21T06:41:02;11.02;;;7.15;;
76348;SDS011;65172;46.764;15.406;2023-03-21T06:43:29;11.43;;;6.90;;
76348;SDS011;65172;46.764;15.406;2023-03-21T06:45:55;12.68;;;6.60;;
76348;SDS011;65172;46.764;15.406;2023-03-21T06:48:21;15.77;;;7.32;;
76348;SDS011;65172;46.764;15.406;2023-03-21T06:50:47;13.20;;;7.15;;
76348;SDS011;65172;46.764;15.406;2023-03-21T06:53:14;10.05;;;7.20;;
76348;SDS011;65172;46.764;15.406;2023-03-21T06:55:40;10.43;;;6.97;;
76348;SDS011;65172;46.764;15.406;2023-03-21T06:58:06;16.15;;;7.38;;
76348;SDS011;65172;46.764;15.406;2023-03-21T07:00:31;10.82;;;7.50;;
76348;SDS011;65172;46.764;15.406;2023-03-21T07:02:57;12.95;;;7.40;;
76348;SDS011;65172;46.764;15.406;2023-03-21T07:05:23;9.88;;;6.63;;
76348;SDS011;65172;46.764;15.406;2023-03-21T07:07:48;12.80;;;6.60;;
76348;SDS011;65172;46.764;15.406;2023-03-21T07:10:14;14.98;;;6.63;;
76348;SDS011;65172;46.764;15.406;2023-03-21T07:12:40;12.27;;;6.50;;
76348;SDS011;65172;46.764;15.406;2023-03-21T07:15:06;11.23;;;7.28;;
76348;SDS011;65172;46.764;15.406;2023-03-21T07:17:32;12.30;;;7.47;;
76348;SDS011;65172;46.764;15.406;2023-03-21T07:19:58;10.98;;;7.07;;
76348;SDS011;65172;46.764;15.406;2023-03-21T07:22:24;12.50;;;7.03;;
76348;SDS011;65172;46.764;15.406;2023-03-21T07:24:49;12.68;;;5.95;;
76348;SDS011;65172;46.764;15.406;2023-03-21T07:27:16;13.90;;;6.53;;
76348;SDS011;65172;46.764;15.406;2023-03-21T07:29:42;9.90;;;6.47;;
76348;SDS011;65172;46.764;15.406;2023-03-21T07:32:09;11.48;;;6.63;;
76348;SDS011;65172;46.764;15.406;2023-03-21T07:34:35;13.73;;;7.47;;
76348;SDS011;65172;46.764;15.406;2023-03-21T07:37:02;26.13;;;7.57;;
76348;SDS011;65172;46.764;15.406;2023-03-21T07:39:27;15.23;;;7.00;;
76348;SDS011;65172;46.764;15.406;2023-03-21T07:41:53;9.70;;;6.95;;
76348;SDS011;65172;46.764;15.406;2023-03-21T07:44:22;7.93;;;6.15;;
76348;SDS011;65172;46.764;15.406;2023-03-21T07:46:48;8.23;;;4.57;;
76348;SDS011;65172;46.764;15.406;2023-03-21T07:49:13;5.05;;;3.58;;
76348;SDS011;65172;46.764;15.406;2023-03-21T07:51:39;5.65;;;3.65;;
76348;SDS011;65172;46.764;15.406;2023-03-21T07:54:04;8.77;;;3.88;;
76348;SDS011;65172;46.764;15.406;2023-03-21T07:56:32;6.70;;;3.78;;
76348;SDS011;65172;46.764;15.406;2023-03-21T07:58:58;5.43;;;3.78;;
76348;SDS011;65172;46.764;15.406;2023-03-21T08:01:24;4.47;;;3.50;;
76348;SDS011;65172;46.764;15.406;2023-03-21T08:03:50;7.75;;;3.90;;
76348;SDS011;65172;46.764;15.406;2023-03-21T08:06:20;10.02;;;4.63;;
76348;SDS011;65172;46.764;15.406;2023-03-21T08:08:46;7.30;;;4.45;;
76348;SDS011;65172;46.764;15.406;2023-03-21T08:11:11;7.10;;;4.80;;
76348;SDS011;65172;46.764;15.406;2023-03-21T08:13:37;10.40;;;4.72;;
76348;SDS011;65172;46.764;15.406;2023-03-21T08:16:04;6.50;;;4.13;;
76348;SDS011;65172;46.764;15.406;2023-03-21T08:18:29;7.57;;;4.25;;
76348;SDS011;65172;46.764;15.406;2023-03-21T08:20:55;6.30;;;4.93;;
76348;SDS011;65172;46.764;15.406;2023-03-21T08:23:22;9.23;;;5.25;;
76348;SDS011;65172;46.764;15.406;2023-03-21T08:25:52;7.07;;;4.95;;
76348;SDS011;65172;46.764;15.406;2023-03-21T08:28:18;6.95;;;4.95;;
76348;SDS011;65172;46.764;15.406;2023-03-21T08:30:44;6.85;;;5.40;;
76348;SDS011;65172;46.764;15.406;2023-03-21T08:33:09;8.18;;;5.70;;
76348;SDS011;65172;46.764;15.406;2023-03-21T08:35:35;10.55;;;3.95;;
76348;SDS011;65172;46.764;15.406;2023-03-21T08:38:03;8.13;;;4.30;;
76348;SDS011;65172;46.764;15.406;2023-03-21T08:40:29;8.32;;;5.35;;
76348;SDS011;65172;46.764;15.406;2023-03-21T08:42:55;9.65;;;4.22;;
76348;SDS011;65172;46.764;15.406;2023-03-21T08:45:21;7.03;;;4.40;;
76348;SDS011;65172;46.764;15.406;2023-03-21T08:47:47;6.13;;;4.60;;
76348;SDS011;65172;46.764;15.406;2023-03-21T08:50:15;9.25;;;4.72;;
76348;SDS011;65172;46.764;15.406;2023-03-21T08:52:44;7.43;;;4.70;;
76348;SDS011;65172;46.764;15.406;2023-03-21T08:55:10;9.13;;;5.28;;
76348;SDS011;65172;46.764;15.406;2023-03-21T08:57:36;9.10;;;4.50;;
76348;SDS011;65172;46.764;15.406;2023-03-21T09:00:03;7.45;;;4.80;;
76348;SDS011;65172;46.764;15.406;2023-03-21T09:02:39;10.02;;;4.60;;
76348;SDS011;65172;46.764;15.406;2023-03-21T09:05:06;6.78;;;4.75;;
76348;SDS011;65172;46.764;15.406;2023-03-21T09:07:33;6.93;;;5.53;;
76348;SDS011;65172;46.764;15.406;2023-03-21T09:10:00;9.45;;;4.47;;
76348;SDS011;65172;46.764;15.406;2023-03-21T09:12:26;6.20;;;4.13;;
76348;SDS011;65172;46.764;15.406;2023-03-21T09:14:52;5.05;;;4.10;;
76348;SDS011;65172;46.764;15.406;2023-03-21T09:17:18;10.02;;;4.95;;
76348;SDS011;65172;46.764;15.406;2023-03-21T09:19:43;6.60;;;4.72;;
76348;SDS011;65172;46.764;15.406;2023-03-21T09:22:11;7.80;;;4.30;;
76348;SDS011;65172;46.764;15.406;2023-03-21T09:24:42;6.22;;;4.20;;
76348;SDS011;65172;46.764;15.406;2023-03-21T09:27:10;7.25;;;3.45;;
76348;SDS011;65172;46.764;15.406;2023-03-21T09:29:35;8.48;;;3.78;;
76348;SDS011;65172;46.764;15.406;2023-03-21T09:32:02;6.15;;;3.30;;
76348;SDS011;65172;46.764;15.406;2023-03-21T09:34:28;2.92;;;2.47;;
76348;SDS011;65172;46.764;15.406;2023-03-21T09:36:54;2.97;;;2.15;;
76348;SDS011;65172;46.764;15.406;2023-03-21T09:39:21;3.15;;;1.58;;
76348;SDS011;65172;46.764;15.406;2023-03-21T09:50:31;4.72;;;3.00;;
76348;SDS011;65172;46.764;15.406;2023-03-21T09:52:43;2.63;;;1.83;;
76348;SDS011;65172;46.764;15.406;2023-03-21T09:55:19;6.88;;;2.13;;
76348;SDS011;65172;46.764;15.406;2023-03-21T09:57:54;4.63;;;1.90;;
76348;SDS011;65172;46.764;15.406;2023-03-21T10:00:39;2.22;;;1.23;;
76348;SDS011;65172;46.764;15.406;2023-03-21T10:03:15;2.22;;;0.93;;
76348;SDS011;65172;46.764;15.406;2023-03-21T10:05:47;2.25;;;0.90;;
76348;SDS011;65172;46.764;15.406;2023-03-21T10:08:20;2.17;;;0.90;;
76348;SDS011;65172;46.764;15.406;2023-03-21T10:10:57;1.20;;;0.77;;
76348;SDS011;65172;46.764;15.406;2023-03-21T10:13:27;8.20;;;1.27;;
76348;SDS011;65172;46.764;15.406;2023-03-21T10:15:57;1.77;;;1.35;;
76348;SDS011;65172;46.764;15.406;2023-03-21T10:18:26;3.05;;;1.63;;
76348;SDS011;65172;46.764;15.406;2023-03-21T10:20:54;2.90;;;1.52;;
76348;SDS011;65172;46.764;15.406;2023-03-21T10:23:20;2.38;;;1.98;;
76348;SDS011;65172;46.764;15.406;2023-03-21T10:25:49;2.50;;;2.00;;
76348;SDS011;65172;46.764;15.406;2023-03-21T10:28:18;3.17;;;2.13;;
76348;SDS011;65172;46.764;15.406;2023-03-21T10:30:55;2.38;;;1.92;;
76348;SDS011;65172;46.764;15.406;2023-03-21T10:33:22;2.22;;;1.83;;
76348;SDS011;65172;46.764;15.406;2023-03-21T10:35:54;3.10;;;1.83;;
76348;SDS011;65172;46.764;15.406;2023-03-21T10:38:22;3.45;;;2.22;;
76348;SDS011;65172;46.764;15.406;2023-03-21T10:40:49;2.45;;;2.00;;
76348;SDS011;65172;46.764;15.406;2023-03-21T10:43:20;2.40;;;2.20;;
76348;SDS011;65172;46.764;15.406;2023-03-21T10:46:04;4.47;;;2.00;;
76348;SDS011;65172;46.764;15.406;2023-03-21T10:48:35;1.90;;;1.70;;
76348;SDS011;65172;46.764;15.406;2023-03-21T10:51:04;1.98;;;1.75;;
76348;SDS011;65172;46.764;15.406;2023-03-21T10:53:33;2.88;;;1.90;;
76348;SDS011;65172;46.764;15.406;2023-03-21T10:56:02;2.20;;;1.73;;
76348;SDS011;65172;46.764;15.406;2023-03-21T10:58:33;3.58;;;1.80;;
76348;SDS011;65172;46.764;15.406;2023-03-21T11:01:04;4.40;;;1.70;;
76348;SDS011;65172;46.764;15.406;2023-03-21T11:03:34;3.58;;;1.75;;
76348;SDS011;65172;46.764;15.406;2023-03-21T11:06:04;2.53;;;1.63;;
76348;SDS011;65172;46.764;15.406;2023-03-21T11:08:37;2.00;;;1.63;;
76348;SDS011;65172;46.764;15.406;2023-03-21T11:11:05;3.33;;;1.45;;
76348;SDS011;65172;46.764;15.406;2023-03-21T11:13:36;2.55;;;1.50;;
76348;SDS011;65172;46.764;15.406;2023-03-21T11:18:42;1.85;;;1.55;;
76348;SDS011;65172;46.764;15.406;2023-03-21T11:21:10;4.05;;;1.70;;
76348;SDS011;65172;46.764;15.406;2023-03-21T11:23:38;2.55;;;1.80;;
76348;SDS011;65172;46.764;15.406;2023-03-21T11:26:09;2.05;;;1.45;;
76348;SDS011;65172;46.764;15.406;2023-03-21T11:28:37;2.55;;;1.60;;
76348;SDS011;65172;46.764;15.406;2023-03-21T11:31:04;2.72;;;1.85;;
76348;SDS011;65172;46.764;15.406;2023-03-21T11:33:41;2.17;;;1.30;;
76348;SDS011;65172;46.764;15.406;2023-03-21T11:38:50;2.38;;;1.60;;
76348;SDS011;65172;46.764;15.406;2023-03-21T11:43:56;2.50;;;1.77;;
76348;SDS011;65172;46.764;15.406;2023-03-21T11:46:26;2.20;;;1.70;;
76348;SDS011;65172;46.764;15.406;2023-03-21T11:48:54;4.93;;;1.83;;
76348;SDS011;65172;46.764;15.406;2023-03-21T12:05:36;3.10;;;1.35;;
76348;SDS011;65172;46.764;15.406;2023-03-21T12:10:50;2.05;;;1.45;;
76348;SDS011;65172;46.764;15.406;2023-03-21T12:15:53;1.50;;;1.30;;
76348;SDS011;65172;46.764;15.406;2023-03-21T12:18:36;1.25;;;1.02;;
76348;SDS011;65172;46.764;15.406;2023-03-21T12:21:19;2.75;;;1.30;;
76348;SDS011;65172;46.764;15.406;2023-03-21T12:26:31;1.52;;;1.23;;
76348;SDS011;65172;46.764;15.406;2023-03-21T12:32:18;2.35;;;1.48;;
76348;SDS011;65172;46.764;15.406;2023-03-21T12:35:13;2.75;;;1.35;;
76348;SDS011;65172;46.764;15.406;2023-03-21T12:43:06;3.00;;;1.55;;
76348;SDS011;65172;46.764;15.406;2023-03-21T12:45:43;1.73;;;1.40;;
76348;SDS011;65172;46.764;15.406;2023-03-21T12:48:18;2.92;;;1.73;;
76348;SDS011;65172;46.764;15.406;2023-03-21T12:50:46;2.15;;;1.58;;
76348;SDS011;65172;46.764;15.406;2023-03-21T12:55:55;3.00;;;1.50;;
76348;SDS011;65172;46.764;15.406;2023-03-21T12:58:25;2.03;;;1.70;;
76348;SDS011;65172;46.764;15.406;2023-03-21T13:00:57;2.65;;;1.40;;
76348;SDS011;65172;46.764;15.406;2023-03-21T13:03:40;2.58;;;1.60;;
76348;SDS011;65172;46.764;15.406;2023-03-21T13:06:14;2.50;;;1.70;;
76348;SDS011;65172;46.764;15.406;2023-03-21T13:11:12;2.22;;;1.65;;
76348;SDS011;65172;46.764;15.406;2023-03-21T13:24:44;1.88;;;1.55;;
76348;SDS011;65172;46.764;15.406;2023-03-21T13:32:40;2.35;;;1.42;;
76348;SDS011;65172;46.764;15.406;2023-03-21T13:35:18;4.05;;;1.67;;
76348;SDS011;65172;46.764;15.406;2023-03-21T13:37:58;2.10;;;1.40;;
76348;SDS011;65172;46.764;15.406;2023-03-21T13:40:34;2.22;;;1.20;;
76348;SDS011;65172;46.764;15.406;2023-03-21T13:43:03;2.45;;;1.40;;
76348;SDS011;65172;46.764;15.406;2023-03-21T13:45:37;2.90;;;1.73;;
76348;SDS011;65172;46.764;15.406;2023-03-21T13:48:27;2.80;;;1.50;;
76348;SDS011;65172;46.764;15.406;2023-03-21T13:51:00;2.20;;;1.35;;
76348;SDS011;65172;46.764;15.406;2023-03-21T13:53:32;1.77;;;1.58;;
76348;SDS011;65172;46.764;15.406;2023-03-21T13:58:34;2.33;;;1.27;;
76348;SDS011;65172;46.764;15.406;2023-03-21T14:03:47;2.10;;;1.40;;
76348;SDS011;65172;46.764;15.406;2023-03-21T14:06:14;3.35;;;1.55;;
76348;SDS011;65172;46.764;15.406;2023-03-21T14:08:42;4.63;;;1.50;;
76348;SDS011;65172;46.764;15.406;2023-03-21T14:11:11;2.58;;;1.27;;
76348;SDS011;65172;46.764;15.406;2023-03-21T14:13:42;2.92;;;1.58;;
76348;SDS011;65172;46.764;15.406;2023-03-21T14:16:10;2.60;;;1.30;;
76348;SDS011;65172;46.764;15.406;2023-03-21T14:18:40;2.05;;;1.25;;
76348;SDS011;65172;46.764;15.406;2023-03-21T14:21:18;1.75;;;1.30;;
76348;SDS011;65172;46.764;15.406;2023-03-21T14:23:44;3.88;;;1.25;;
76348;SDS011;65172;46.764;15.406;2023-03-21T14:26:10;1.60;;;1.25;;
76348;SDS011;65172;46.764;15.406;2023-03-21T14:28:38;3.35;;;1.23;;
76348;SDS011;65172;46.764;15.406;2023-03-21T14:31:12;2.65;;;1.15;;
76348;SDS011;65172;46.764;15.406;2023-03-21T14:33:47;2.20;;;1.17;;
76348;SDS011;65172;46.764;15.406;2023-03-21T14:36:18;2.95;;;1.23;;
76348;SDS011;65172;46.764;15.406;2023-03-21T14:39:02;4.57;;;1.60;;
76348;SDS011;65172;46.764;15.406;2023-03-21T14:41:28;2.67;;;1.38;;
76348;SDS011;65172;46.764;15.406;2023-03-21T14:46:27;4.38;;;1.50;;
76348;SDS011;65172;46.764;15.406;2023-03-21T14:48:52;2.53;;;1.63;;
76348;SDS011;65172;46.764;15.406;2023-03-21T14:51:18;3.08;;;1.42;;
76348;SDS011;65172;46.764;15.406;2023-03-21T14:53:43;3.10;;;1.80;;
76348;SDS011;65172;46.764;15.406;2023-03-21T14:58:39;2.45;;;1.52;;
76348;SDS011;65172;46.764;15.406;2023-03-21T15:01:05;4.38;;;1.98;;
76348;SDS011;65172;46.764;15.406;2023-03-21T15:03:32;1.92;;;1.45;;
76348;SDS011;65172;46.764;15.406;2023-03-21T15:05:58;3.67;;;2.20;;
76348;SDS011;65172;46.764;15.406;2023-03-21T15:08:25;5.15;;;1.77;;
76348;SDS011;65172;46.764;15.406;2023-03-21T15:13:28;2.38;;;1.83;;
76348;SDS011;65172;46.764;15.406;2023-03-21T15:15:56;2.45;;;1.88;;
76348;SDS011;65172;46.764;15.406;2023-03-21T15:18:29;2.42;;;1.60;;
76348;SDS011;65172;46.764;15.406;2023-03-21T15:20:57;2.67;;;1.90;;
76348;SDS011;65172;46.764;15.406;2023-03-21T15:23:30;4.07;;;2.00;;
76348;SDS011;65172;46.764;15.406;2023-03-21T15:26:01;4.00;;;2.10;;
76348;SDS011;65172;46.764;15.406;2023-03-21T15:28:27;2.58;;;2.00;;
76348;SDS011;65172;46.764;15.406;2023-03-21T15:30:52;2.38;;;1.83;;
76348;SDS011;65172;46.764;15.406;2023-03-21T15:33:18;3.58;;;1.90;;
76348;SDS011;65172;46.764;15.406;2023-03-21T15:35:48;5.07;;;2.00;;
76348;SDS011;65172;46.764;15.406;2023-03-21T15:41:22;3.10;;;2.30;;
76348;SDS011;65172;46.764;15.406;2023-03-21T15:51:40;4.88;;;2.55;;
76348;SDS011;65172;46.764;15.406;2023-03-21T15:54:14;4.88;;;3.28;;
76348;SDS011;65172;46.764;15.406;2023-03-21T15:56:43;6.72;;;3.80;;
76348;SDS011;65172;46.764;15.406;2023-03-21T15:59:13;5.32;;;3.20;;
76348;SDS011;65172;46.764;15.406;2023-03-21T16:01:44;4.68;;;3.15;;
76348;SDS011;65172;46.764;15.406;2023-03-21T16:04:11;4.85;;;2.95;;
76348;SDS011;65172;46.764;15.406;2023-03-21T16:06:58;4.60;;;3.30;;
76348;SDS011;65172;46.764;15.406;2023-03-21T16:09:26;5.80;;;3.42;;
76348;SDS011;65172;46.764;15.406;2023-03-21T16:11:53;6.45;;;3.25;;
76348;SDS011;65172;46.764;15.406;2023-03-21T16:14:20;4.20;;;3.33;;
76348;SDS011;65172;46.764;15.406;2023-03-21T16:16:47;6.95;;;3.05;;
76348;SDS011;65172;46.764;15.406;2023-03-21T16:19:13;6.30;;;3.83;;
76348;SDS011;65172;46.764;15.406;2023-03-21T16:21:39;4.97;;;3.53;;
76348;SDS011;65172;46.764;15.406;2023-03-21T16:24:06;5.82;;;3.45;;
76348;SDS011;65172;46.764;15.406;2023-03-21T16:26:33;4.25;;;3.45;;
76348;SDS011;65172;46.764;15.406;2023-03-21T16:29:01;5.55;;;4.50;;
76348;SDS011;65172;46.764;15.406;2023-03-21T16:31:27;5.43;;;4.00;;
76348;SDS011;65172;46.764;15.406;2023-03-21T16:33:54;5.95;;;3.50;;
76348;SDS011;65172;46.764;15.406;2023-03-21T16:36:24;7.35;;;3.22;;
76348;SDS011;65172;46.764;15.406;2023-03-21T16:38:52;6.55;;;3.47;;